createdAt,value
2016-11-01T00:00:46.096Z,1017.05
2016-11-01T00:01:46.088Z,1017.01
2016-11-01T00:02:46.000Z,1016.98
2016-11-01T00:03:45.969Z,1016.97
2016-11-01T00:04:45.945Z,1017.03
2016-11-01T00:05:46.274Z,1016.94
2016-11-01T00:06:45.932Z,1016.93
2016-11-01T00:07:45.848Z,1016.96
2016-11-01T00:08:45.818Z,1016.92
2016-11-01T00:09:45.794Z,1016.84
2016-11-01T00:10:45.773Z,1016.86
2016-11-01T00:11:45.740Z,1016.86
2016-11-01T00:12:45.707Z,1016.89
2016-11-01T00:14:45.643Z,1016.85
2016-11-01T00:15:45.622Z,1016.81
2016-11-01T00:16:45.606Z,1016.77
2016-11-01T00:17:45.594Z,1016.73
2016-11-01T00:18:45.588Z,1016.75
2016-11-01T00:19:45.499Z,1016.74
2016-11-01T00:20:45.468Z,1016.69
2016-11-01T00:21:45.434Z,1016.68
2016-11-01T00:22:45.407Z,1016.68
2016-11-01T00:23:45.425Z,1016.64
2016-11-01T00:24:45.347Z,1016.64
2016-11-01T00:25:45.325Z,1016.64
2016-11-01T00:26:45.292Z,1016.6
2016-11-01T00:27:45.262Z,1016.58
2016-11-01T00:28:45.230Z,1016.56
2016-11-01T00:29:45.197Z,1016.58
2016-11-01T00:30:45.170Z,1016.58
2016-11-01T00:31:45.195Z,1016.53
2016-11-01T00:32:45.134Z,1016.52
2016-11-01T00:33:45.088Z,1016.52
2016-11-01T00:34:45.048Z,1016.47
2016-11-01T00:35:45.027Z,1016.49
2016-11-01T00:36:44.991Z,1016.49
2016-11-01T00:37:44.967Z,1016.45
2016-11-01T00:38:44.978Z,1016.47
2016-11-01T00:39:44.902Z,1016.46
2016-11-01T00:40:44.943Z,1016.5
2016-11-01T00:41:44.852Z,1016.5
2016-11-01T00:42:44.813Z,1016.46
2016-11-01T00:43:44.785Z,1016.48
2016-11-01T00:44:44.757Z,1016.45
2016-11-01T00:45:44.735Z,1016.46
2016-11-01T00:46:44.699Z,1016.45
2016-11-01T00:47:44.667Z,1016.46
2016-11-01T00:49:44.636Z,1016.47
2016-11-01T00:51:44.559Z,1016.43
2016-11-01T00:52:44.521Z,1016.42
2016-11-01T00:53:44.491Z,1016.43
2016-11-01T00:54:44.473Z,1016.4
2016-11-01T00:55:44.874Z,1016.43
2016-11-01T00:56:44.403Z,1016.42
2016-11-01T00:57:44.373Z,1016.4
2016-11-01T00:58:44.374Z,1016.39
2016-11-01T00:59:44.321Z,1016.36
2016-11-01T01:00:44.718Z,1016.34
2016-11-01T01:01:44.310Z,1016.33
2016-11-01T01:02:44.233Z,1016.32
2016-11-01T01:03:44.215Z,1016.3
2016-11-01T01:04:44.162Z,1016.27
2016-11-01T01:05:44.146Z,1016.25
2016-11-01T01:06:44.121Z,1016.22
2016-11-01T01:07:44.400Z,1016.19
2016-11-01T01:08:44.148Z,1016.17
2016-11-01T01:09:44.073Z,1016.15
2016-11-01T01:10:43.983Z,1016.15
2016-11-01T01:11:43.988Z,1016.14
2016-11-01T01:12:43.952Z,1016.12
2016-11-01T01:13:43.896Z,1016.12
2016-11-01T01:14:43.921Z,1016.15
2016-11-01T01:16:43.811Z,1016.13
2016-11-01T01:17:43.829Z,1016.1
2016-11-01T01:18:43.782Z,1016.07
2016-11-01T01:19:43.720Z,1016.09
2016-11-01T01:20:43.701Z,1016.07
2016-11-01T01:22:43.636Z,1016.04
2016-11-01T01:23:43.602Z,1016.02
2016-11-01T01:24:43.580Z,1016.01
2016-11-01T01:25:43.542Z,1016.01
2016-11-01T01:26:43.524Z,1015.98
2016-11-01T01:27:43.481Z,1015.96
2016-11-01T01:28:43.487Z,1015.93
2016-11-01T01:29:43.424Z,1015.95
2016-11-01T01:30:43.724Z,1015.96
2016-11-01T01:31:43.391Z,1015.9
2016-11-01T01:32:43.340Z,1015.87
2016-11-01T01:33:43.307Z,1015.82
2016-11-01T01:34:43.274Z,1015.81
2016-11-01T01:35:43.247Z,1015.76
2016-11-01T01:36:43.213Z,1015.76
2016-11-01T01:37:43.185Z,1015.75
2016-11-01T01:38:43.207Z,1015.73
2016-11-01T01:39:43.130Z,1015.71
2016-11-01T01:40:43.095Z,1015.68
2016-11-01T01:41:43.072Z,1015.74
2016-11-01T01:42:43.048Z,1015.68
2016-11-01T01:43:43.005Z,1015.67
2016-11-01T01:44:42.978Z,1015.65
2016-11-01T01:45:42.958Z,1015.58
2016-11-01T01:46:42.924Z,1015.54
2016-11-01T01:47:42.936Z,1015.48
2016-11-01T01:48:42.856Z,1015.44
2016-11-01T01:49:42.832Z,1015.45
2016-11-01T01:50:42.798Z,1015.44
2016-11-01T01:51:42.834Z,1015.43
2016-11-01T01:52:42.738Z,1015.4
2016-11-01T01:53:42.709Z,1015.37
2016-11-01T01:54:42.680Z,1015.42
2016-11-01T01:55:43.175Z,1015.41
2016-11-01T01:56:42.622Z,1015.37
2016-11-01T01:57:42.588Z,1015.35
2016-11-01T01:58:42.568Z,1015.37
2016-11-01T01:59:42.548Z,1015.39
2016-11-01T02:00:42.562Z,1015.4
2016-11-01T02:01:42.482Z,1015.39
2016-11-01T02:02:44.188Z,1015.41
2016-11-01T02:03:42.470Z,1015.48
2016-11-01T02:04:42.388Z,1015.49
2016-11-01T02:05:42.361Z,1015.5
2016-11-01T02:06:42.322Z,1015.58
2016-11-01T02:07:42.294Z,1015.58
2016-11-01T02:08:42.259Z,1015.65
2016-11-01T02:09:42.234Z,1015.64
2016-11-01T02:10:42.218Z,1015.61
2016-11-01T02:11:42.177Z,1015.57
2016-11-01T02:12:42.193Z,1015.54
2016-11-01T02:13:42.209Z,1015.51
2016-11-01T02:14:42.101Z,1015.47
2016-11-01T02:15:42.102Z,1015.4
2016-11-01T02:16:42.467Z,1015.4
2016-11-01T02:17:42.091Z,1015.36
2016-11-01T02:18:41.972Z,1015.36
2016-11-01T02:19:41.939Z,1015.31
2016-11-01T02:20:41.922Z,1015.35
2016-11-01T02:21:41.896Z,1015.33
2016-11-01T02:22:41.850Z,1015.33
2016-11-01T02:23:41.832Z,1015.31
2016-11-01T02:24:41.784Z,1015.29
2016-11-01T02:26:41.723Z,1015.3
2016-11-01T02:27:41.705Z,1015.31
2016-11-01T02:28:41.664Z,1015.25
2016-11-01T02:30:41.611Z,1015.28
2016-11-01T02:31:41.579Z,1015.26
2016-11-01T02:32:41.553Z,1015.28
2016-11-01T02:33:41.526Z,1015.31
2016-11-01T02:34:41.514Z,1015.38
2016-11-01T02:35:41.465Z,1015.38
2016-11-01T02:36:41.699Z,1015.4
2016-11-01T02:37:41.622Z,1015.4
2016-11-01T02:38:41.365Z,1015.34
2016-11-01T02:39:41.564Z,1015.32
